sensor_id;sensor_type;location;lat;lon;timestamp;P1;durP1;ratioP1;P2;durP2;ratioP2
13805;SDS011;6974;53.606;9.872;2022-09-13T00:00:41;3.60;;;3.30;;
13805;SDS011;6974;53.606;9.872;2022-09-13T00:03:09;3.60;;;3.30;;
13805;SDS011;6974;53.606;9.872;2022-09-13T00:05:37;3.80;;;3.50;;
13805;SDS011;6974;53.606;9.872;2022-09-13T00:08:04;3.80;;;3.50;;
13805;SDS011;6974;53.606;9.872;2022-09-13T00:10:32;3.70;;;3.40;;
13805;SDS011;6974;53.606;9.872;2022-09-13T00:13:01;4.17;;;3.77;;
13805;SDS011;6974;53.606;9.872;2022-09-13T00:15:28;3.93;;;3.43;;
13805;SDS011;6974;53.606;9.872;2022-09-13T00:17:55;3.70;;;3.40;;
13805;SDS011;6974;53.606;9.872;2022-09-13T00:20:22;3.93;;;3.57;;
13805;SDS011;6974;53.606;9.872;2022-09-13T00:22:48;4.00;;;3.60;;
13805;SDS011;6974;53.606;9.872;2022-09-13T00:25:15;3.93;;;3.63;;
13805;SDS011;6974;53.606;9.872;2022-09-13T00:27:42;5.03;;;3.70;;
13805;SDS011;6974;53.606;9.872;2022-09-13T00:30:11;4.87;;;3.93;;
13805;SDS011;6974;53.606;9.872;2022-09-13T00:32:39;4.60;;;4.10;;
13805;SDS011;6974;53.606;9.872;2022-09-13T00:35:06;6.37;;;4.30;;
13805;SDS011;6974;53.606;9.872;2022-09-13T00:37:33;5.10;;;4.37;;
13805;SDS011;6974;53.606;9.872;2022-09-13T00:40:00;4.83;;;4.20;;
13805;SDS011;6974;53.606;9.872;2022-09-13T00:42:28;5.27;;;4.20;;
13805;SDS011;6974;53.606;9.872;2022-09-13T00:44:58;5.90;;;4.47;;
13805;SDS011;6974;53.606;9.872;2022-09-13T00:47:29;4.80;;;4.40;;
13805;SDS011;6974;53.606;9.872;2022-09-13T00:50:02;5.03;;;4.53;;
13805;SDS011;6974;53.606;9.872;2022-09-13T00:52:32;4.77;;;4.37;;
13805;SDS011;6974;53.606;9.872;2022-09-13T00:55:02;4.93;;;4.27;;
13805;SDS011;6974;53.606;9.872;2022-09-13T00:57:33;5.40;;;4.37;;
13805;SDS011;6974;53.606;9.872;2022-09-13T01:00:03;5.03;;;4.50;;
13805;SDS011;6974;53.606;9.872;2022-09-13T01:02:39;5.40;;;4.83;;
13805;SDS011;6974;53.606;9.872;2022-09-13T01:05:09;5.10;;;4.60;;
13805;SDS011;6974;53.606;9.872;2022-09-13T01:07:37;5.17;;;4.73;;
13805;SDS011;6974;53.606;9.872;2022-09-13T01:10:04;5.37;;;4.87;;
13805;SDS011;6974;53.606;9.872;2022-09-13T01:12:33;5.50;;;5.00;;
13805;SDS011;6974;53.606;9.872;2022-09-13T01:15:08;5.00;;;4.50;;
13805;SDS011;6974;53.606;9.872;2022-09-13T01:17:35;5.43;;;4.83;;
13805;SDS011;6974;53.606;9.872;2022-09-13T01:20:06;5.70;;;5.20;;
13805;SDS011;6974;53.606;9.872;2022-09-13T01:25:56;7.40;;;5.20;;
13805;SDS011;6974;53.606;9.872;2022-09-13T01:28:56;5.90;;;5.30;;
13805;SDS011;6974;53.606;9.872;2022-09-13T01:31:34;5.90;;;5.30;;
13805;SDS011;6974;53.606;9.872;2022-09-13T01:34:15;6.10;;;5.53;;
13805;SDS011;6974;53.606;9.872;2022-09-13T01:36:54;6.20;;;5.60;;
13805;SDS011;6974;53.606;9.872;2022-09-13T01:39:37;5.77;;;5.17;;
13805;SDS011;6974;53.606;9.872;2022-09-13T01:42:15;5.77;;;5.27;;
13805;SDS011;6974;53.606;9.872;2022-09-13T01:44:58;6.30;;;5.70;;
13805;SDS011;6974;53.606;9.872;2022-09-13T01:47:33;6.10;;;5.43;;
13805;SDS011;6974;53.606;9.872;2022-09-13T01:50:14;6.10;;;5.57;;
13805;SDS011;6974;53.606;9.872;2022-09-13T01:52:47;7.50;;;5.60;;
13805;SDS011;6974;53.606;9.872;2022-09-13T01:55:28;6.07;;;5.50;;
13805;SDS011;6974;53.606;9.872;2022-09-13T01:58:02;6.83;;;5.60;;
13805;SDS011;6974;53.606;9.872;2022-09-13T02:00:39;6.27;;;5.50;;
13805;SDS011;6974;53.606;9.872;2022-09-13T02:03:20;6.10;;;5.57;;
13805;SDS011;6974;53.606;9.872;2022-09-13T02:05:53;6.33;;;5.70;;
13805;SDS011;6974;53.606;9.872;2022-09-13T02:08:25;6.43;;;5.83;;
13805;SDS011;6974;53.606;9.872;2022-09-13T02:11:03;6.40;;;5.77;;
13805;SDS011;6974;53.606;9.872;2022-09-13T02:13:35;8.17;;;5.90;;
13805;SDS011;6974;53.606;9.872;2022-09-13T02:16:07;6.40;;;5.53;;
13805;SDS011;6974;53.606;9.872;2022-09-13T02:18:39;6.37;;;5.70;;
13805;SDS011;6974;53.606;9.872;2022-09-13T02:21:10;7.53;;;6.83;;
13805;SDS011;6974;53.606;9.872;2022-09-13T02:23:40;6.63;;;6.03;;
13805;SDS011;6974;53.606;9.872;2022-09-13T02:26:11;6.53;;;5.93;;
13805;SDS011;6974;53.606;9.872;2022-09-13T02:28:41;9.67;;;6.87;;
13805;SDS011;6974;53.606;9.872;2022-09-13T02:31:12;6.20;;;5.63;;
13805;SDS011;6974;53.606;9.872;2022-09-13T02:33:44;6.87;;;6.17;;
13805;SDS011;6974;53.606;9.872;2022-09-13T02:36:17;6.70;;;6.00;;
13805;SDS011;6974;53.606;9.872;2022-09-13T02:38:48;6.83;;;6.13;;
13805;SDS011;6974;53.606;9.872;2022-09-13T02:41:20;6.73;;;6.10;;
13805;SDS011;6974;53.606;9.872;2022-09-13T02:43:53;6.73;;;6.13;;
13805;SDS011;6974;53.606;9.872;2022-09-13T02:46:31;7.43;;;6.73;;
13805;SDS011;6974;53.606;9.872;2022-09-13T02:49:09;7.53;;;6.83;;
13805;SDS011;6974;53.606;9.872;2022-09-13T02:51:42;7.47;;;6.73;;
13805;SDS011;6974;53.606;9.872;2022-09-13T02:54:18;7.00;;;6.20;;
13805;SDS011;6974;53.606;9.872;2022-09-13T02:56:50;7.37;;;6.67;;
13805;SDS011;6974;53.606;9.872;2022-09-13T02:59:22;7.03;;;6.37;;
13805;SDS011;6974;53.606;9.872;2022-09-13T03:01:51;7.97;;;7.10;;
13805;SDS011;6974;53.606;9.872;2022-09-13T03:04:25;8.07;;;7.20;;
13805;SDS011;6974;53.606;9.872;2022-09-13T03:06:52;7.73;;;6.90;;
13805;SDS011;6974;53.606;9.872;2022-09-13T03:09:19;7.60;;;6.87;;
13805;SDS011;6974;53.606;9.872;2022-09-13T03:11:52;8.50;;;7.60;;
13805;SDS011;6974;53.606;9.872;2022-09-13T03:14:31;8.23;;;6.83;;
13805;SDS011;6974;53.606;9.872;2022-09-13T03:17:13;8.30;;;7.40;;
13805;SDS011;6974;53.606;9.872;2022-09-13T03:19:55;9.23;;;8.20;;
13805;SDS011;6974;53.606;9.872;2022-09-13T03:22:44;8.47;;;7.67;;
13805;SDS011;6974;53.606;9.872;2022-09-13T03:25:34;8.23;;;7.40;;
13805;SDS011;6974;53.606;9.872;2022-09-13T03:28:12;8.80;;;8.00;;
13805;SDS011;6974;53.606;9.872;2022-09-13T03:30:49;9.03;;;8.23;;
13805;SDS011;6974;53.606;9.872;2022-09-13T03:33:23;9.23;;;8.43;;
13805;SDS011;6974;53.606;9.872;2022-09-13T03:35:59;10.37;;;8.63;;
13805;SDS011;6974;53.606;9.872;2022-09-13T03:38:31;9.90;;;8.90;;
13805;SDS011;6974;53.606;9.872;2022-09-13T03:41:03;9.97;;;8.83;;
13805;SDS011;6974;53.606;9.872;2022-09-13T03:43:34;10.90;;;9.33;;
13805;SDS011;6974;53.606;9.872;2022-09-13T03:46:04;9.63;;;8.73;;
13805;SDS011;6974;53.606;9.872;2022-09-13T03:48:35;11.60;;;10.27;;
13805;SDS011;6974;53.606;9.872;2022-09-13T03:51:07;11.43;;;10.30;;
13805;SDS011;6974;53.606;9.872;2022-09-13T03:53:36;11.60;;;10.50;;
13805;SDS011;6974;53.606;9.872;2022-09-13T03:56:10;12.33;;;10.77;;
13805;SDS011;6974;53.606;9.872;2022-09-13T03:58:38;11.37;;;10.17;;
13805;SDS011;6974;53.606;9.872;2022-09-13T04:01:05;12.10;;;10.90;;
13805;SDS011;6974;53.606;9.872;2022-09-13T04:03:32;13.53;;;12.20;;
13805;SDS011;6974;53.606;9.872;2022-09-13T04:05:58;12.03;;;10.93;;
13805;SDS011;6974;53.606;9.872;2022-09-13T04:08:27;14.53;;;12.27;;
13805;SDS011;6974;53.606;9.872;2022-09-13T04:10:53;12.50;;;11.20;;
13805;SDS011;6974;53.606;9.872;2022-09-13T04:13:20;12.10;;;10.80;;
13805;SDS011;6974;53.606;9.872;2022-09-13T04:15:47;14.70;;;12.43;;
13805;SDS011;6974;53.606;9.872;2022-09-13T04:18:14;13.80;;;12.40;;
13805;SDS011;6974;53.606;9.872;2022-09-13T04:20:41;13.40;;;12.00;;
13805;SDS011;6974;53.606;9.872;2022-09-13T04:23:08;13.60;;;12.07;;
13805;SDS011;6974;53.606;9.872;2022-09-13T04:25:38;13.93;;;12.57;;
13805;SDS011;6974;53.606;9.872;2022-09-13T04:28:05;15.33;;;13.47;;
13805;SDS011;6974;53.606;9.872;2022-09-13T04:30:32;17.03;;;15.23;;
13805;SDS011;6974;53.606;9.872;2022-09-13T04:32:59;19.53;;;17.47;;
13805;SDS011;6974;53.606;9.872;2022-09-13T04:35:25;20.17;;;18.00;;
13805;SDS011;6974;53.606;9.872;2022-09-13T04:37:53;18.70;;;16.77;;
13805;SDS011;6974;53.606;9.872;2022-09-13T04:40:21;18.77;;;16.83;;
13805;SDS011;6974;53.606;9.872;2022-09-13T04:42:50;19.50;;;17.43;;
13805;SDS011;6974;53.606;9.872;2022-09-13T04:45:16;22.50;;;18.57;;
13805;SDS011;6974;53.606;9.872;2022-09-13T04:47:43;21.83;;;19.03;;
13805;SDS011;6974;53.606;9.872;2022-09-13T04:50:15;21.50;;;19.27;;
13805;SDS011;6974;53.606;9.872;2022-09-13T04:52:42;21.50;;;18.67;;
13805;SDS011;6974;53.606;9.872;2022-09-13T04:55:09;21.93;;;19.23;;
13805;SDS011;6974;53.606;9.872;2022-09-13T04:57:36;21.33;;;19.03;;
13805;SDS011;6974;53.606;9.872;2022-09-13T05:00:04;22.40;;;20.00;;
13805;SDS011;6974;53.606;9.872;2022-09-13T05:02:32;22.40;;;19.80;;
13805;SDS011;6974;53.606;9.872;2022-09-13T05:04:59;23.53;;;21.03;;
13805;SDS011;6974;53.606;9.872;2022-09-13T05:07:26;23.57;;;21.17;;
13805;SDS011;6974;53.606;9.872;2022-09-13T05:09:53;24.37;;;21.63;;
13805;SDS011;6974;53.606;9.872;2022-09-13T05:12:19;25.93;;;21.57;;
13805;SDS011;6974;53.606;9.872;2022-09-13T05:14:46;24.17;;;21.67;;
13805;SDS011;6974;53.606;9.872;2022-09-13T05:17:14;24.13;;;21.63;;
13805;SDS011;6974;53.606;9.872;2022-09-13T05:19:41;25.30;;;22.33;;
13805;SDS011;6974;53.606;9.872;2022-09-13T05:22:08;25.60;;;22.87;;
13805;SDS011;6974;53.606;9.872;2022-09-13T05:24:35;26.23;;;22.67;;
13805;SDS011;6974;53.606;9.872;2022-09-13T05:27:01;25.70;;;22.90;;
13805;SDS011;6974;53.606;9.872;2022-09-13T05:29:28;24.83;;;22.23;;
13805;SDS011;6974;53.606;9.872;2022-09-13T05:31:55;23.93;;;21.23;;
13805;SDS011;6974;53.606;9.872;2022-09-13T05:34:24;24.70;;;22.00;;
13805;SDS011;6974;53.606;9.872;2022-09-13T05:36:50;25.07;;;22.40;;
13805;SDS011;6974;53.606;9.872;2022-09-13T05:39:17;25.00;;;22.40;;
13805;SDS011;6974;53.606;9.872;2022-09-13T05:41:46;27.87;;;24.10;;
13805;SDS011;6974;53.606;9.872;2022-09-13T05:44:13;24.80;;;22.27;;
13805;SDS011;6974;53.606;9.872;2022-09-13T05:46:40;25.13;;;22.53;;
13805;SDS011;6974;53.606;9.872;2022-09-13T05:49:07;26.83;;;24.03;;
13805;SDS011;6974;53.606;9.872;2022-09-13T05:51:35;25.90;;;23.10;;
13805;SDS011;6974;53.606;9.872;2022-09-13T05:54:02;25.10;;;22.43;;
13805;SDS011;6974;53.606;9.872;2022-09-13T05:56:29;25.70;;;23.00;;
13805;SDS011;6974;53.606;9.872;2022-09-13T05:58:56;25.37;;;22.67;;
13805;SDS011;6974;53.606;9.872;2022-09-13T06:01:25;26.20;;;23.30;;
13805;SDS011;6974;53.606;9.872;2022-09-13T06:03:53;25.17;;;22.43;;
13805;SDS011;6974;53.606;9.872;2022-09-13T06:06:21;26.97;;;22.90;;
13805;SDS011;6974;53.606;9.872;2022-09-13T06:08:52;26.10;;;23.23;;
13805;SDS011;6974;53.606;9.872;2022-09-13T06:11:19;25.83;;;22.43;;
13805;SDS011;6974;53.606;9.872;2022-09-13T06:13:46;26.20;;;23.03;;
13805;SDS011;6974;53.606;9.872;2022-09-13T06:16:13;25.70;;;21.53;;
13805;SDS011;6974;53.606;9.872;2022-09-13T06:18:40;26.70;;;23.23;;
13805;SDS011;6974;53.606;9.872;2022-09-13T06:21:08;23.00;;;20.53;;
13805;SDS011;6974;53.606;9.872;2022-09-13T06:23:36;24.17;;;21.73;;
13805;SDS011;6974;53.606;9.872;2022-09-13T06:26:05;24.10;;;21.57;;
13805;SDS011;6974;53.606;9.872;2022-09-13T06:28:34;24.07;;;21.43;;
13805;SDS011;6974;53.606;9.872;2022-09-13T06:31:02;23.57;;;21.03;;
13805;SDS011;6974;53.606;9.872;2022-09-13T06:33:31;23.50;;;21.07;;
13805;SDS011;6974;53.606;9.872;2022-09-13T06:35:59;25.73;;;21.53;;
13805;SDS011;6974;53.606;9.872;2022-09-13T06:38:26;27.90;;;20.47;;
13805;SDS011;6974;53.606;9.872;2022-09-13T06:40:58;24.77;;;20.57;;
13805;SDS011;6974;53.606;9.872;2022-09-13T06:43:27;22.57;;;20.03;;
13805;SDS011;6974;53.606;9.872;2022-09-13T06:45:57;23.20;;;19.43;;
13805;SDS011;6974;53.606;9.872;2022-09-13T06:48:25;21.97;;;18.97;;
13805;SDS011;6974;53.606;9.872;2022-09-13T06:50:52;22.13;;;19.13;;
13805;SDS011;6974;53.606;9.872;2022-09-13T06:53:23;22.43;;;17.77;;
13805;SDS011;6974;53.606;9.872;2022-09-13T06:55:58;21.10;;;17.37;;
13805;SDS011;6974;53.606;9.872;2022-09-13T06:58:27;18.47;;;16.47;;
13805;SDS011;6974;53.606;9.872;2022-09-13T07:01:03;21.67;;;17.30;;
13805;SDS011;6974;53.606;9.872;2022-09-13T07:03:34;18.40;;;15.27;;
13805;SDS011;6974;53.606;9.872;2022-09-13T07:06:05;18.90;;;16.33;;
13805;SDS011;6974;53.606;9.872;2022-09-13T07:08:32;17.27;;;15.47;;
13805;SDS011;6974;53.606;9.872;2022-09-13T07:10:59;18.53;;;14.97;;
13805;SDS011;6974;53.606;9.872;2022-09-13T07:13:27;16.50;;;13.63;;
13805;SDS011;6974;53.606;9.872;2022-09-13T07:15:54;15.93;;;11.77;;
13805;SDS011;6974;53.606;9.872;2022-09-13T07:18:21;13.67;;;11.90;;
13805;SDS011;6974;53.606;9.872;2022-09-13T07:20:48;15.17;;;10.83;;
13805;SDS011;6974;53.606;9.872;2022-09-13T07:23:15;18.27;;;12.80;;
13805;SDS011;6974;53.606;9.872;2022-09-13T07:25:41;16.57;;;11.27;;
13805;SDS011;6974;53.606;9.872;2022-09-13T07:28:08;15.53;;;10.60;;
13805;SDS011;6974;53.606;9.872;2022-09-13T07:30:36;11.77;;;10.00;;
13805;SDS011;6974;53.606;9.872;2022-09-13T07:33:03;13.80;;;9.90;;
13805;SDS011;6974;53.606;9.872;2022-09-13T07:35:29;14.40;;;11.33;;
13805;SDS011;6974;53.606;9.872;2022-09-13T07:37:56;13.20;;;9.70;;
13805;SDS011;6974;53.606;9.872;2022-09-13T07:40:23;11.47;;;8.60;;
13805;SDS011;6974;53.606;9.872;2022-09-13T07:42:50;12.47;;;9.00;;
13805;SDS011;6974;53.606;9.872;2022-09-13T07:45:16;11.03;;;8.57;;
13805;SDS011;6974;53.606;9.872;2022-09-13T07:47:45;12.20;;;8.70;;
13805;SDS011;6974;53.606;9.872;2022-09-13T07:50:12;12.23;;;8.10;;
13805;SDS011;6974;53.606;9.872;2022-09-13T07:52:39;7.93;;;6.87;;
13805;SDS011;6974;53.606;9.872;2022-09-13T07:55:06;10.17;;;7.40;;
13805;SDS011;6974;53.606;9.872;2022-09-13T07:57:34;10.97;;;6.80;;
13805;SDS011;6974;53.606;9.872;2022-09-13T08:00:00;10.30;;;6.73;;
13805;SDS011;6974;53.606;9.872;2022-09-13T08:02:29;9.47;;;5.80;;
13805;SDS011;6974;53.606;9.872;2022-09-13T08:04:58;9.17;;;5.83;;
13805;SDS011;6974;53.606;9.872;2022-09-13T08:07:24;9.30;;;5.80;;
13805;SDS011;6974;53.606;9.872;2022-09-13T08:09:51;7.23;;;5.20;;
13805;SDS011;6974;53.606;9.872;2022-09-13T08:12:20;11.87;;;5.40;;
13805;SDS011;6974;53.606;9.872;2022-09-13T08:14:47;11.23;;;5.77;;
13805;SDS011;6974;53.606;9.872;2022-09-13T08:17:14;8.03;;;4.60;;
13805;SDS011;6974;53.606;9.872;2022-09-13T08:19:41;10.00;;;4.90;;
13805;SDS011;6974;53.606;9.872;2022-09-13T08:22:09;7.73;;;4.33;;
13805;SDS011;6974;53.606;9.872;2022-09-13T08:24:35;9.83;;;4.33;;
13805;SDS011;6974;53.606;9.872;2022-09-13T08:27:02;5.97;;;3.20;;
13805;SDS011;6974;53.606;9.872;2022-09-13T08:29:29;7.57;;;3.23;;
13805;SDS011;6974;53.606;9.872;2022-09-13T08:31:56;3.87;;;2.73;;
13805;SDS011;6974;53.606;9.872;2022-09-13T08:34:22;7.37;;;2.47;;
13805;SDS011;6974;53.606;9.872;2022-09-13T08:36:49;4.33;;;1.87;;
13805;SDS011;6974;53.606;9.872;2022-09-13T08:39:17;6.50;;;2.03;;
13805;SDS011;6974;53.606;9.872;2022-09-13T08:41:54;6.67;;;2.03;;
13805;SDS011;6974;53.606;9.872;2022-09-13T08:44:43;7.70;;;2.50;;
13805;SDS011;6974;53.606;9.872;2022-09-13T08:50:05;7.77;;;2.20;;
13805;SDS011;6974;53.606;9.872;2022-09-13T08:52:39;5.40;;;1.90;;
13805;SDS011;6974;53.606;9.872;2022-09-13T08:55:20;7.47;;;2.10;;
13805;SDS011;6974;53.606;9.872;2022-09-13T08:57:54;6.93;;;2.20;;
13805;SDS011;6974;53.606;9.872;2022-09-13T09:00:32;6.33;;;2.10;;
13805;SDS011;6974;53.606;9.872;2022-09-13T09:03:10;6.37;;;1.70;;
13805;SDS011;6974;53.606;9.872;2022-09-13T09:05:44;5.77;;;1.80;;
13805;SDS011;6974;53.606;9.872;2022-09-13T09:08:13;6.10;;;1.90;;
13805;SDS011;6974;53.606;9.872;2022-09-13T09:10:48;4.27;;;2.00;;
13805;SDS011;6974;53.606;9.872;2022-09-13T09:13:18;7.10;;;2.10;;
13805;SDS011;6974;53.606;9.872;2022-09-13T09:15:51;5.60;;;1.77;;
13805;SDS011;6974;53.606;9.872;2022-09-13T09:18:20;5.60;;;1.90;;
13805;SDS011;6974;53.606;9.872;2022-09-13T09:20:51;5.40;;;1.90;;
13805;SDS011;6974;53.606;9.872;2022-09-13T09:23:21;6.87;;;1.93;;
13805;SDS011;6974;53.606;9.872;2022-09-13T09:25:52;5.87;;;2.00;;
13805;SDS011;6974;53.606;9.872;2022-09-13T09:28:22;7.50;;;2.07;;
13805;SDS011;6974;53.606;9.872;2022-09-13T09:30:52;4.00;;;1.97;;
13805;SDS011;6974;53.606;9.872;2022-09-13T09:33:38;8.07;;;2.00;;
13805;SDS011;6974;53.606;9.872;2022-09-13T09:36:18;5.33;;;1.50;;
13805;SDS011;6974;53.606;9.872;2022-09-13T09:38:53;4.27;;;1.53;;
13805;SDS011;6974;53.606;9.872;2022-09-13T09:41:24;5.53;;;1.50;;
13805;SDS011;6974;53.606;9.872;2022-09-13T09:43:54;6.40;;;2.13;;
13805;SDS011;6974;53.606;9.872;2022-09-13T09:46:28;5.30;;;1.53;;
13805;SDS011;6974;53.606;9.872;2022-09-13T09:49:00;3.10;;;1.50;;
13805;SDS011;6974;53.606;9.872;2022-09-13T09:51:52;8.63;;;1.90;;
13805;SDS011;6974;53.606;9.872;2022-09-13T09:54:21;6.93;;;1.90;;
13805;SDS011;6974;53.606;9.872;2022-09-13T09:56:53;3.73;;;1.60;;
13805;SDS011;6974;53.606;9.872;2022-09-13T09:59:24;7.30;;;2.13;;
13805;SDS011;6974;53.606;9.872;2022-09-13T10:01:53;6.20;;;2.03;;
13805;SDS011;6974;53.606;9.872;2022-09-13T10:04:22;5.17;;;1.80;;
13805;SDS011;6974;53.606;9.872;2022-09-13T10:06:49;3.17;;;1.60;;
13805;SDS011;6974;53.606;9.872;2022-09-13T10:09:32;6.90;;;1.83;;
13805;SDS011;6974;53.606;9.872;2022-09-13T10:12:03;5.20;;;2.17;;
13805;SDS011;6974;53.606;9.872;2022-09-13T10:14:35;6.57;;;1.90;;
13805;SDS011;6974;53.606;9.872;2022-09-13T10:17:05;7.67;;;2.20;;
13805;SDS011;6974;53.606;9.872;2022-09-13T10:19:52;6.90;;;1.93;;
13805;SDS011;6974;53.606;9.872;2022-09-13T10:22:23;6.67;;;2.33;;
13805;SDS011;6974;53.606;9.872;2022-09-13T10:24:50;5.57;;;1.83;;
13805;SDS011;6974;53.606;9.872;2022-09-13T10:27:23;3.90;;;1.60;;
13805;SDS011;6974;53.606;9.872;2022-09-13T10:29:54;8.13;;;2.10;;
13805;SDS011;6974;53.606;9.872;2022-09-13T10:32:24;3.73;;;1.80;;
13805;SDS011;6974;53.606;9.872;2022-09-13T10:34:51;6.80;;;2.10;;
13805;SDS011;6974;53.606;9.872;2022-09-13T10:37:20;6.40;;;2.13;;
13805;SDS011;6974;53.606;9.872;2022-09-13T10:39:55;6.17;;;2.07;;
13805;SDS011;6974;53.606;9.872;2022-09-13T10:42:28;4.57;;;1.87;;
13805;SDS011;6974;53.606;9.872;2022-09-13T10:44:56;5.77;;;2.10;;
13805;SDS011;6974;53.606;9.872;2022-09-13T10:47:26;5.73;;;2.00;;
13805;SDS011;6974;53.606;9.872;2022-09-13T10:49:57;5.23;;;1.60;;
13805;SDS011;6974;53.606;9.872;2022-09-13T10:52:41;3.70;;;1.83;;
13805;SDS011;6974;53.606;9.872;2022-09-13T10:55:29;5.73;;;1.90;;
13805;SDS011;6974;53.606;9.872;2022-09-13T10:58:14;6.97;;;1.87;;
13805;SDS011;6974;53.606;9.872;2022-09-13T11:00:45;5.27;;;1.73;;
13805;SDS011;6974;53.606;9.872;2022-09-13T11:03:36;5.43;;;1.80;;
13805;SDS011;6974;53.606;9.872;2022-09-13T11:06:17;5.90;;;1.73;;
13805;SDS011;6974;53.606;9.872;2022-09-13T11:08:54;4.20;;;1.73;;
13805;SDS011;6974;53.606;9.872;2022-09-13T11:11:26;5.90;;;1.90;;
13805;SDS011;6974;53.606;9.872;2022-09-13T11:14:04;4.30;;;1.87;;
13805;SDS011;6974;53.606;9.872;2022-09-13T11:16:52;3.50;;;1.70;;
13805;SDS011;6974;53.606;9.872;2022-09-13T11:22:23;6.33;;;1.93;;
13805;SDS011;6974;53.606;9.872;2022-09-13T11:25:02;4.73;;;1.90;;
13805;SDS011;6974;53.606;9.872;2022-09-13T11:27:41;4.37;;;1.87;;
13805;SDS011;6974;53.606;9.872;2022-09-13T11:30:16;4.70;;;1.77;;
13805;SDS011;6974;53.606;9.872;2022-09-13T11:32:53;4.60;;;1.90;;
13805;SDS011;6974;53.606;9.872;2022-09-13T11:35:35;3.87;;;1.70;;
13805;SDS011;6974;53.606;9.872;2022-09-13T11:38:21;7.73;;;2.23;;
13805;SDS011;6974;53.606;9.872;2022-09-13T11:41:01;4.93;;;1.93;;
13805;SDS011;6974;53.606;9.872;2022-09-13T11:43:48;3.67;;;1.67;;
13805;SDS011;6974;53.606;9.872;2022-09-13T11:46:26;4.50;;;1.60;;
13805;SDS011;6974;53.606;9.872;2022-09-13T11:49:08;4.40;;;2.07;;
13805;SDS011;6974;53.606;9.872;2022-09-13T11:51:50;5.27;;;1.70;;
13805;SDS011;6974;53.606;9.872;2022-09-13T11:54:31;6.43;;;2.20;;
13805;SDS011;6974;53.606;9.872;2022-09-13T11:57:09;6.87;;;2.00;;
13805;SDS011;6974;53.606;9.872;2022-09-13T11:59:39;5.33;;;1.90;;
13805;SDS011;6974;53.606;9.872;2022-09-13T12:02:15;5.87;;;1.80;;
13805;SDS011;6974;53.606;9.872;2022-09-13T12:04:49;5.33;;;2.50;;
13805;SDS011;6974;53.606;9.872;2022-09-13T12:07:23;5.20;;;1.90;;
13805;SDS011;6974;53.606;9.872;2022-09-13T12:09:57;6.53;;;2.20;;
13805;SDS011;6974;53.606;9.872;2022-09-13T12:12:30;7.07;;;1.97;;
13805;SDS011;6974;53.606;9.872;2022-09-13T12:14:59;6.43;;;1.80;;
13805;SDS011;6974;53.606;9.872;2022-09-13T12:17:33;6.40;;;2.00;;
13805;SDS011;6974;53.606;9.872;2022-09-13T12:20:02;7.47;;;2.13;;
13805;SDS011;6974;53.606;9.872;2022-09-13T12:22:38;5.50;;;1.80;;
13805;SDS011;6974;53.606;9.872;2022-09-13T12:25:10;6.00;;;1.80;;
13805;SDS011;6974;53.606;9.872;2022-09-13T12:27:44;4.77;;;2.37;;
13805;SDS011;6974;53.606;9.872;2022-09-13T12:30:19;5.77;;;2.10;;
13805;SDS011;6974;53.606;9.872;2022-09-13T12:32:48;4.67;;;2.10;;
13805;SDS011;6974;53.606;9.872;2022-09-13T12:35:18;6.93;;;2.07;;
13805;SDS011;6974;53.606;9.872;2022-09-13T12:38:01;7.03;;;1.80;;
13805;SDS011;6974;53.606;9.872;2022-09-13T12:40:53;6.13;;;2.10;;
13805;SDS011;6974;53.606;9.872;2022-09-13T12:46:31;7.23;;;2.17;;
13805;SDS011;6974;53.606;9.872;2022-09-13T12:52:22;4.30;;;1.87;;
13805;SDS011;6974;53.606;9.872;2022-09-13T12:57:56;7.93;;;2.07;;
13805;SDS011;6974;53.606;9.872;2022-09-13T13:00:35;4.70;;;1.77;;
13805;SDS011;6974;53.606;9.872;2022-09-13T13:03:11;5.97;;;2.27;;
13805;SDS011;6974;53.606;9.872;2022-09-13T13:05:43;5.93;;;2.20;;
13805;SDS011;6974;53.606;9.872;2022-09-13T13:08:24;3.37;;;1.33;;
13805;SDS011;6974;53.606;9.872;2022-09-13T13:11:00;7.63;;;2.23;;
13805;SDS011;6974;53.606;9.872;2022-09-13T13:13:32;6.97;;;1.90;;
13805;SDS011;6974;53.606;9.872;2022-09-13T13:16:02;5.87;;;1.80;;
13805;SDS011;6974;53.606;9.872;2022-09-13T13:18:31;5.33;;;1.97;;
13805;SDS011;6974;53.606;9.872;2022-09-13T13:33:10;5.13;;;2.53;;
13805;SDS011;6974;53.606;9.872;2022-09-13T13:35:40;7.17;;;2.40;;
13805;SDS011;6974;53.606;9.872;2022-09-13T13:38:15;5.40;;;1.80;;
13805;SDS011;6974;53.606;9.872;2022-09-13T13:41:07;5.73;;;2.10;;
13805;SDS011;6974;53.606;9.872;2022-09-13T13:50:31;4.77;;;1.60;;
13805;SDS011;6974;53.606;9.872;2022-09-13T13:52:59;5.47;;;2.13;;
13805;SDS011;6974;53.606;9.872;2022-09-13T13:55:46;7.00;;;1.73;;
13805;SDS011;6974;53.606;9.872;2022-09-13T13:58:30;9.10;;;2.23;;
13805;SDS011;6974;53.606;9.872;2022-09-13T14:01:03;7.07;;;2.23;;
13805;SDS011;6974;53.606;9.872;2022-09-13T14:03:33;5.90;;;2.00;;
13805;SDS011;6974;53.606;9.872;2022-09-13T14:06:14;6.47;;;2.17;;
13805;SDS011;6974;53.606;9.872;2022-09-13T14:08:45;7.77;;;2.43;;
13805;SDS011;6974;53.606;9.872;2022-09-13T14:11:25;4.70;;;2.00;;
13805;SDS011;6974;53.606;9.872;2022-09-13T14:14:06;7.30;;;2.60;;
13805;SDS011;6974;53.606;9.872;2022-09-13T14:16:54;9.37;;;2.27;;
13805;SDS011;6974;53.606;9.872;2022-09-13T14:19:37;6.90;;;2.50;;
13805;SDS011;6974;53.606;9.872;2022-09-13T14:22:10;8.50;;;2.53;;
13805;SDS011;6974;53.606;9.872;2022-09-13T14:24:40;7.03;;;2.50;;
13805;SDS011;6974;53.606;9.872;2022-09-13T14:27:12;9.27;;;2.30;;
13805;SDS011;6974;53.606;9.872;2022-09-13T14:29:44;8.60;;;2.13;;
13805;SDS011;6974;53.606;9.872;2022-09-13T14:32:14;6.57;;;2.40;;
13805;SDS011;6974;53.606;9.872;2022-09-13T14:34:50;7.80;;;2.20;;
13805;SDS011;6974;53.606;9.872;2022-09-13T14:37:24;7.53;;;2.30;;
13805;SDS011;6974;53.606;9.872;2022-09-13T14:39:57;6.27;;;2.20;;
13805;SDS011;6974;53.606;9.872;2022-09-13T14:42:25;8.83;;;2.00;;
13805;SDS011;6974;53.606;9.872;2022-09-13T14:45:04;7.23;;;2.40;;
13805;SDS011;6974;53.606;9.872;2022-09-13T14:47:32;5.27;;;2.30;;
13805;SDS011;6974;53.606;9.872;2022-09-13T14:50:05;8.33;;;2.53;;
13805;SDS011;6974;53.606;9.872;2022-09-13T14:52:38;9.67;;;2.30;;
13805;SDS011;6974;53.606;9.872;2022-09-13T14:55:12;5.20;;;1.90;;
13805;SDS011;6974;53.606;9.872;2022-09-13T14:57:42;7.20;;;2.33;;
13805;SDS011;6974;53.606;9.872;2022-09-13T15:00:16;7.10;;;2.33;;
13805;SDS011;6974;53.606;9.872;2022-09-13T15:02:46;7.53;;;2.40;;
13805;SDS011;6974;53.606;9.872;2022-09-13T15:05:15;7.63;;;2.50;;
13805;SDS011;6974;53.606;9.872;2022-09-13T15:07:43;4.77;;;2.20;;
13805;SDS011;6974;53.606;9.872;2022-09-13T15:10:19;6.47;;;2.30;;
13805;SDS011;6974;53.606;9.872;2022-09-13T15:12:49;5.40;;;2.20;;
13805;SDS011;6974;53.606;9.872;2022-09-13T15:15:30;7.63;;;2.13;;
13805;SDS011;6974;53.606;9.872;2022-09-13T15:18:00;6.80;;;2.20;;
13805;SDS011;6974;53.606;9.872;2022-09-13T15:20:29;6.37;;;2.17;;
13805;SDS011;6974;53.606;9.872;2022-09-13T15:23:12;7.83;;;2.10;;
13805;SDS011;6974;53.606;9.872;2022-09-13T15:25:40;8.93;;;2.70;;
13805;SDS011;6974;53.606;9.872;2022-09-13T15:28:18;6.50;;;2.20;;
13805;SDS011;6974;53.606;9.872;2022-09-13T15:30:48;8.40;;;2.47;;
13805;SDS011;6974;53.606;9.872;2022-09-13T15:33:18;9.73;;;2.43;;
13805;SDS011;6974;53.606;9.872;2022-09-13T15:35:49;6.93;;;2.40;;
13805;SDS011;6974;53.606;9.872;2022-09-13T15:38:20;6.60;;;2.50;;
13805;SDS011;6974;53.606;9.872;2022-09-13T15:41:00;7.17;;;2.40;;
13805;SDS011;6974;53.606;9.872;2022-09-13T15:43:28;5.73;;;2.23;;
13805;SDS011;6974;53.606;9.872;2022-09-13T15:45:58;4.40;;;2.07;;
13805;SDS011;6974;53.606;9.872;2022-09-13T15:48:26;6.37;;;2.20;;
13805;SDS011;6974;53.606;9.872;2022-09-13T15:51:03;6.23;;;2.17;;
13805;SDS011;6974;53.606;9.872;2022-09-13T15:53:32;4.07;;;2.00;;
13805;SDS011;6974;53.606;9.872;2022-09-13T15:55:59;4.13;;;2.07;;
13805;SDS011;6974;53.606;9.872;2022-09-13T15:58:27;4.87;;;1.80;;